Thomasville, North Carolina
Current Conditions -  °F | °C
As of 6:55 PM on Wednesday 28 Jan 2015 (Local Time) from KEXX Reporting Station
Clear Clear  
Wind Chill: 35°   Ceiling: Unl
Heat Index: 35°   Visibility: 10mi
Dew Point: 15°   Wind: 0mph
Humidity: 44%   Direction: NA
Pressure: 30.26"   Gusts: NA
Location:  35.88°N, 80.08°W
Report Text: KEXX 282355Z AUTO 00000KT 10SM CLR 02/M09 A3026 RMK AO2 T00161094 10075 20016
Loading
Personal Weather Stations






























Interactive Weather Map New forecast layout! Learn more

10-Day Weather Forecast

Advertisements
Track Severe Weather on mobile